KMKO/MKO METAR and TAF weather

Enter ICAO airport designator
Station Type Date Time Source
KMKO METAR 2022/01/29 08:53 UTC NOAA

KMKO 290853Z AUTO 16005KT 10SM CLR M04/M08 A3036 RMK AO2 SLP284 T10441078 56018


Station Type Date Time Source
KMKO Decoded METAR 2022/01/29 08:53 UTC NOAA

MUSKOGEE DAVIS FIELD, OK, United States (KMKO) 35-39N 95-22W 185M
Jan 29, 2022 - 03:53 AM EST / 2022.01.29 0853 UTC
Wind: from the SSE (160 degrees) at 6 MPH (5 KT):0
Visibility: 10 mile(s):0
Sky conditions: clear
Temperature: 24.1 F (-4.4 C)
Windchill: 17 F (-8 C):1
Dew Point: 18.0 F (-7.8 C)
Relative Humidity: 77%
Pressure (altimeter): 30.36 in. Hg (1028 hPa)
Pressure tendency: 0.05 inches (1.8 hPa) lower than three hours ago
ob: KMKO 290853Z AUTO 16005KT 10SM CLR M04/M08 A3036 RMK AO2 SLP284 T10441078 56018
cycle: 9

Station Type Date Time Source
KMKO TAF UTC NOAA

Error!

Example: see airport list